createdAt,value
2022-08-09T17:35:58.146Z,98164.91
2022-08-09T17:38:32.871Z,98176.47
2022-08-09T17:41:04.141Z,98173.13
2022-08-09T17:43:34.311Z,98169.00
2022-08-09T17:46:08.690Z,98176.81
2022-08-09T17:48:39.683Z,98173.94
2022-08-09T17:51:18.499Z,98185.47
2022-08-09T17:53:52.885Z,98183.59
2022-08-09T17:56:27.556Z,98187.78
2022-08-09T17:58:56.556Z,98190.47
2022-08-09T18:01:23.910Z,98183.78
2022-08-09T18:03:54.580Z,98183.72
2022-08-09T18:06:31.007Z,98191.38
2022-08-09T18:09:00.902Z,98183.06
2022-08-09T18:11:27.478Z,98201.06
2022-08-09T18:14:03.428Z,98190.53
2022-08-09T18:16:48.853Z,98196.59
2022-08-09T18:20:59.919Z,98189.44
2022-08-09T18:22:04.130Z,98194.59
2022-08-09T18:24:31.153Z,98205.00
2022-08-09T18:26:57.895Z,98199.53
2022-08-09T18:30:37.883Z,98209.25
2022-08-09T18:32:14.533Z,98206.38
2022-08-09T18:34:45.811Z,98202.34
2022-08-09T18:37:48.068Z,98211.16
2022-08-09T18:40:01.808Z,98215.72
2022-08-09T18:42:28.472Z,98212.84
2022-08-09T18:44:56.982Z,98218.16
2022-08-09T18:47:24.816Z,98216.81
2022-08-09T18:49:54.612Z,98220.53
2022-08-09T18:52:34.679Z,98225.78
2022-08-09T18:55:02.107Z,98224.28
2022-08-09T18:57:38.679Z,98226.94
2022-08-09T19:00:12.033Z,98231.09
2022-08-09T19:02:46.615Z,98235.59
2022-08-09T19:05:19.557Z,98237.00
2022-08-09T19:08:03.603Z,98234.34
2022-08-09T19:10:37.690Z,98238.97
2022-08-09T19:13:16.525Z,98243.56
2022-08-09T19:15:49.907Z,98249.84
2022-08-09T19:18:36.309Z,98247.69
2022-08-09T19:21:09.353Z,98247.31
2022-08-09T19:24:32.452Z,98242.22
2022-08-09T19:26:31.262Z,98251.38
2022-08-09T19:29:09.676Z,98244.72
2022-08-09T19:31:45.274Z,98243.16
2022-08-09T19:34:18.300Z,98248.50
2022-08-09T19:36:51.319Z,98259.03
2022-08-09T19:39:20.490Z,98261.16
2022-08-09T19:41:48.626Z,98268.50
2022-08-09T19:44:20.225Z,98261.81
2022-08-09T19:46:50.912Z,98261.19
2022-08-09T19:50:07.060Z,98262.22
2022-08-09T19:52:08.501Z,98257.50
2022-08-09T19:54:35.142Z,98264.84
2022-08-09T19:57:03.574Z,98273.03
2022-08-09T19:59:58.048Z,98270.22
2022-08-09T20:04:11.623Z,98263.06
2022-08-09T20:05:11.399Z,98270.06
2022-08-09T20:07:57.044Z,98267.50
2022-08-09T20:10:34.068Z,98268.63
2022-08-09T20:13:03.070Z,98268.88
2022-08-09T20:16:34.444Z,98274.16
2022-08-09T20:18:18.827Z,98280.44
2022-08-09T20:20:47.109Z,98280.56
2022-08-09T20:23:17.398Z,98276.94
2022-08-09T20:25:51.272Z,98275.19
2022-08-09T20:28:27.607Z,98275.75
2022-08-09T20:30:54.890Z,98277.41
2022-08-09T20:33:21.837Z,98273.53
2022-08-09T20:35:51.595Z,98287.53
2022-08-09T20:38:27.567Z,98280.16
2022-08-09T20:40:56.774Z,98289.09
2022-08-09T20:43:25.422Z,98283.38
2022-08-09T20:45:56.886Z,98286.13
2022-08-09T20:48:29.048Z,98286.66
2022-08-09T20:50:58.003Z,98287.88
2022-08-09T20:53:36.781Z,98286.31
2022-08-09T20:56:20.459Z,98287.88
2022-08-09T20:58:57.825Z,98286.00
2022-08-09T21:01:34.516Z,98286.75
2022-08-09T21:05:51.204Z,98282.22
2022-08-09T21:07:11.942Z,98284.63
2022-08-09T21:09:55.288Z,98285.81
2022-08-09T21:12:23.145Z,98283.94
2022-08-09T21:14:50.183Z,98277.97
2022-08-09T21:18:11.855Z,98277.81
2022-08-09T21:20:25.475Z,98274.59
2022-08-09T21:22:54.059Z,98268.59
2022-08-09T21:25:43.755Z,98265.53
2022-08-09T21:28:11.998Z,98272.81
2022-08-09T21:30:42.446Z,98270.72
2022-08-09T21:33:09.587Z,98278.78
2022-08-09T21:35:39.462Z,98275.91
2022-08-09T21:38:30.762Z,98276.09
2022-08-09T21:40:59.379Z,98270.09
2022-08-09T21:43:46.586Z,98262.53
2022-08-09T21:46:13.690Z,98268.69
2022-08-09T21:48:42.606Z,98258.50
2022-08-09T21:51:13.964Z,98263.31
2022-08-09T21:53:41.505Z,98257.97
2022-08-09T21:56:28.386Z,98264.72
2022-08-09T21:58:54.693Z,98264.81
2022-08-09T22:01:26.173Z,98266.22
2022-08-09T22:04:08.262Z,98267.94
2022-08-09T22:06:34.839Z,98272.25
2022-08-09T22:09:01.591Z,98269.78
2022-08-09T22:12:06.130Z,98276.19
2022-08-09T22:14:14.918Z,98268.97
2022-08-09T22:16:41.786Z,98261.44
2022-08-09T22:19:25.481Z,98259.81
2022-08-09T22:21:55.257Z,98257.38
2022-08-09T22:24:24.827Z,98261.41
2022-08-09T22:26:52.257Z,98260.34
2022-08-09T22:29:19.222Z,98258.72
2022-08-09T22:31:56.371Z,98259.00
2022-08-09T22:34:25.739Z,98264.66
2022-08-09T22:36:54.353Z,98261.28
2022-08-09T22:39:55.481Z,98259.38
2022-08-09T22:42:21.491Z,98262.47
2022-08-09T22:48:04.549Z,98252.25
2022-08-09T22:48:15.665Z,98263.47
2022-08-09T22:50:26.482Z,98257.38
2022-08-09T22:52:54.943Z,98262.59
2022-08-09T22:55:26.650Z,98262.63
2022-08-09T22:58:06.566Z,98251.72
